Time;durP1;ratioP1;P1;durP2;ratioP2;P2;SDS_P1;SDS_P2;PMS_P1;PMS_P2;Temp;Humidity;BMP_temperature;BMP_pressure;BME280_temperature;BME280_humidity;BME280_pressure;Samples;Min_cycle;Max_cycle;Signal;HPM_P1;HPM_P2
2022/08/09 00:01:24;;;;;;;;;;;22.70;62.90;;;;;;5093353;28;20099;-70
2022/08/09 00:03:49;;;;;;;3.33;1.45;;;22.70;62.80;;;;;;5093009;28;19910;-70
2022/08/09 00:06:15;;;;;;;2.63;1.20;;;22.60;63.00;;;;;;5096858;28;20058;-70
2022/08/09 00:08:41;;;;;;;;;;;22.50;63.20;;;;;;5096995;28;20049;-69
2022/08/09 00:11:06;;;;;;;2.63;1.42;;;22.50;63.30;;;;;;5094930;28;20002;-69
2022/08/09 00:13:32;;;;;;;5.38;1.73;;;22.60;63.30;;;;;;5096487;28;20059;-69
2022/08/09 00:15:57;;;;;;;;;;;22.50;63.70;;;;;;5096966;28;20059;-69
2022/08/09 00:18:23;;;;;;;1.95;1.23;;;22.50;63.90;;;;;;5096752;28;19911;-69
2022/08/09 00:20:48;;;;;;;1.90;1.35;;;22.40;64.10;;;;;;5096104;28;20107;-69
2022/08/09 00:23:14;;;;;;;2.58;1.50;;;22.40;64.60;;;;;;5096048;28;20101;-69
2022/08/09 00:25:40;;;;;;;4.43;1.23;;;22.30;65.30;;;;;;5095954;28;20046;-69
2022/08/09 00:28:05;;;;;;;2.63;1.60;;;22.30;65.80;;;;;;5094773;28;20097;-70
2022/08/09 00:30:34;;;;;;;3.28;1.17;;;22.30;66.00;;;;;;5096143;28;20028;-70
2022/08/09 00:32:59;;;;;;;5.13;1.90;;;22.20;66.50;;;;;;5094439;28;20344;-70
2022/08/09 00:35:25;;;;;;;1.48;1.10;;;22.20;67.00;;;;;;5095597;28;20028;-68
2022/08/09 00:37:50;;;;;;;2.17;1.15;;;22.10;67.50;;;;;;5095662;28;20102;-69
2022/08/09 00:40:16;;;;;;;6.93;2.47;;;22.00;67.60;;;;;;5095437;28;20027;-69
2022/08/09 00:42:42;;;;;;;2.15;1.30;;;22.00;68.00;;;;;;5095557;28;20369;-70
2022/08/09 00:45:08;;;;;;;9.13;1.40;;;21.90;68.10;;;;;;5095575;28;20061;-70
2022/08/09 00:47:34;;;;;;;2.90;1.40;;;21.80;68.40;;;;;;5095406;28;20036;-69
2022/08/09 00:50:00;;;;;;;1.30;1.10;;;21.70;69.10;;;;;;5095232;28;20077;-69
2022/08/09 00:52:26;;;;;;;2.38;1.40;;;21.70;69.50;;;;;;5095293;28;20028;-69
2022/08/09 00:54:52;;;;;;;1.83;1.10;;;21.60;69.80;;;;;;5095223;28;20016;-70
2022/08/09 00:57:21;;;;;;;;;;;21.60;70.30;;;;;;5095735;28;20388;-69
2022/08/09 00:59:47;;;;;;;1.75;1.17;;;21.60;70.70;;;;;;5093852;28;19962;-69
2022/08/09 01:02:21;;;;;;;1.45;0.98;;;21.50;71.00;;;;;;5093799;28;20119;-69
2022/08/09 01:04:56;;;;;;;2.85;1.30;;;21.60;71.20;;;;;;5095193;28;20353;-69
2022/08/09 01:07:29;;;;;;;1.75;1.08;;;21.50;71.50;;;;;;5093709;28;20020;-70
2022/08/09 01:10:22;;;;;;;2.22;1.65;;;21.50;72.50;;;;;;5095003;28;20503;-70
2022/08/09 01:13:02;;;;;;;4.20;1.25;;;21.40;72.00;;;;;;5095703;28;20489;-69
2022/08/09 01:15:33;;;;;;;2.97;1.42;;;21.30;72.50;;;;;;5095099;28;20035;-69
2022/08/09 01:18:03;;;;;;;3.13;1.40;;;21.30;72.80;;;;;;5133762;22;20048;-68
2022/08/09 01:20:51;;;;;;;7.55;1.50;;;21.20;73.10;;;;;;5117076;28;20020;-69
2022/08/09 01:23:38;;;;;;;6.15;1.90;;;21.20;73.10;;;;;;5116275;28;20030;-69
2022/08/09 01:26:36;;;;;;;2.28;1.10;;;21.10;72.90;;;;;;5114686;28;20027;-69
2022/08/09 01:29:05;;;;;;;4.53;1.42;;;21.00;73.00;;;;;;5114831;28;20548;-70
2022/08/09 01:31:33;;;;;;;2.28;1.05;;;21.00;73.10;;;;;;5114412;28;20080;-69
2022/08/09 01:34:03;;;;;;;2.00;1.10;;;21.00;72.70;;;;;;5114351;28;20139;-70
2022/08/09 01:36:30;;;;;;;3.33;1.02;;;21.00;72.70;;;;;;5114185;28;20020;-69
2022/08/09 01:38:58;;;;;;;3.15;1.02;;;21.00;72.70;;;;;;5113992;28;20024;-69
2022/08/09 01:41:30;;;;;;;2.88;1.00;;;20.90;72.40;;;;;;5115411;28;20027;-69
2022/08/09 01:43:59;;;;;;;3.38;1.13;;;20.90;73.20;;;;;;5115371;28;20054;-69
2022/08/09 01:46:29;;;;;;;6.43;1.00;;;20.70;72.70;;;;;;5115513;28;20360;-70
2022/08/09 01:48:59;;;;;;;4.13;1.25;;;20.60;73.20;;;;;;5114050;28;20089;-69
2022/08/09 01:51:27;;;;;;;2.92;1.17;;;20.60;73.30;;;;;;5115622;28;20030;-69
2022/08/09 01:53:55;;;;;;;3.90;0.95;;;20.60;73.10;;;;;;5114414;28;20039;-69
2022/08/09 01:56:22;;;;;;;2.67;1.10;;;20.60;73.80;;;;;;5115625;28;20472;-69
2022/08/09 01:58:50;;;;;;;2.53;1.33;;;20.50;74.00;;;;;;5114410;28;20084;-69
2022/08/09 02:01:16;;;;;;;1.55;1.10;;;20.60;73.80;;;;;;5114175;28;20388;-69
2022/08/09 02:03:44;;;;;;;5.03;1.30;;;20.60;74.60;;;;;;5116409;28;20051;-69
2022/08/09 02:06:10;;;;;;;3.80;1.10;;;20.60;74.10;;;;;;5115159;28;20023;-70
2022/08/09 02:08:41;;;;;;;3.08;1.10;;;20.60;74.40;;;;;;5115970;28;20023;-69
2022/08/09 02:11:08;;;;;;;2.13;1.15;;;20.50;74.70;;;;;;5115729;28;20026;-69
2022/08/09 02:13:35;;;;;;;2.80;1.15;;;20.60;75.20;;;;;;5114921;28;20039;-69
2022/08/09 02:16:02;;;;;;;6.05;1.92;;;20.50;75.40;;;;;;5113758;28;20106;-70
2022/08/09 02:18:31;;;;;;;2.28;1.20;;;20.50;75.60;;;;;;5115026;28;20041;-69
2022/08/09 02:21:10;;;;;;;1.90;1.10;;;20.50;76.10;;;;;;5113669;28;20027;-69
2022/08/09 02:23:41;;;;;;;3.30;1.17;;;20.40;76.40;;;;;;5113810;28;20062;-69
2022/08/09 02:26:08;;;;;;;2.72;1.10;;;20.40;76.60;;;;;;5113692;28;20105;-70
2022/08/09 02:28:39;;;;;;;2.33;1.38;;;20.40;76.40;;;;;;5114757;28;20023;-70
2022/08/09 02:31:14;;;;;;;6.00;1.30;;;20.40;76.50;;;;;;5115239;28;20023;-69
2022/08/09 02:33:43;;;;;;;5.10;1.38;;;20.20;76.90;;;;;;5113353;28;20028;-69
2022/08/09 02:36:14;;;;;;;3.13;1.20;;;20.30;76.00;;;;;;5113307;28;20110;-69
2022/08/09 02:38:50;;;;;;;1.75;1.02;;;20.30;75.60;;;;;;5113958;28;20464;-69
2022/08/09 02:41:24;;;;;;;3.53;1.30;;;20.30;75.50;;;;;;5114251;28;20034;-69
2022/08/09 02:43:51;;;;;;;3.92;1.10;;;20.10;75.60;;;;;;5114388;28;20137;-69
2022/08/09 02:46:17;;;;;;;3.95;1.33;;;19.90;75.70;;;;;;5115434;28;20023;-68
2022/08/09 02:48:44;;;;;;;2.78;1.30;;;19.60;76.40;;;;;;5114212;28;20110;-69
2022/08/09 02:51:13;;;;;;;2.78;1.35;;;19.40;77.20;;;;;;5115067;28;20072;-69
2022/08/09 02:53:47;;;;;;;3.35;1.10;;;19.30;77.90;;;;;;5115069;28;20031;-69
2022/08/09 02:56:14;;;;;;;4.72;1.02;;;19.30;78.20;;;;;;5115316;28;20032;-71
2022/08/09 02:58:41;;;;;;;3.38;1.15;;;19.10;78.50;;;;;;5115166;28;20460;-69
2022/08/09 03:01:08;;;;;;;2.97;1.05;;;18.90;79.10;;;;;;5113863;28;20041;-69
2022/08/09 03:03:36;;;;;;;3.33;1.20;;;18.80;80.00;;;;;;5113675;28;20023;-69
2022/08/09 03:06:04;;;;;;;2.50;1.20;;;18.60;80.60;;;;;;5115441;28;20122;-70
2022/08/09 03:08:32;;;;;;;2.78;1.00;;;18.70;80.40;;;;;;5113689;28;20075;-70
2022/08/09 03:10:59;;;;;;;5.05;1.30;;;18.60;80.70;;;;;;5115367;28;20157;-69
2022/08/09 03:13:25;;;;;;;2.63;1.20;;;18.60;80.60;;;;;;5114781;28;20089;-70
2022/08/09 03:15:51;;;;;;;6.80;1.42;;;18.40;80.60;;;;;;5115326;28;20380;-69
2022/08/09 03:18:17;;;;;;;4.00;1.15;;;18.30;81.10;;;;;;5115077;28;20038;-70
2022/08/09 03:20:43;;;;;;;2.38;1.00;;;18.30;81.40;;;;;;5114922;28;20019;-69
2022/08/09 03:23:10;;;;;;;2.95;1.40;;;18.30;81.90;;;;;;5114243;28;20122;-69
2022/08/09 03:25:37;;;;;;;2.75;1.17;;;18.30;81.80;;;;;;5114590;28;20023;-69
2022/08/09 03:28:04;;;;;;;3.05;1.30;;;18.40;81.60;;;;;;5114741;28;20023;-69
2022/08/09 03:30:31;;;;;;;3.63;1.42;;;18.30;81.60;;;;;;5115502;28;20075;-69
2022/08/09 03:32:59;;;;;;;2.58;1.52;;;18.00;82.40;;;;;;5115119;28;20028;-69
2022/08/09 03:35:25;;;;;;;5.25;2.55;;;18.00;82.90;;;;;;5115984;28;20026;-69
2022/08/09 03:37:51;;;;;;;5.82;2.83;;;18.00;83.00;;;;;;5114853;28;20015;-69
2022/08/09 03:40:17;;;;;;;7.20;3.10;;;18.00;83.00;;;;;;5119166;28;20027;-69
2022/08/09 03:42:43;;;;;;;9.47;4.77;;;18.00;83.30;;;;;;5124743;28;20031;-69
2022/08/09 03:45:09;;;;;;;;;;;17.90;83.70;;;;;;5135376;28;20269;-69
2022/08/09 03:47:34;;;;;;;11.20;4.32;;;17.80;84.10;;;;;;5135028;28;19946;-70
2022/08/09 03:50:03;;;;;;;7.85;4.47;;;17.90;84.40;;;;;;5130380;28;20051;-69
2022/08/09 03:52:29;;;;;;;7.78;4.30;;;18.10;84.10;;;;;;5123639;28;20049;-70
2022/08/09 03:54:56;;;;;;;13.00;4.40;;;18.20;83.30;;;;;;5123721;28;20076;-70
2022/08/09 03:57:22;;;;;;;11.27;5.00;;;18.10;83.40;;;;;;5130184;28;20019;-69
2022/08/09 03:59:50;;;;;;;15.27;5.35;;;18.20;83.30;;;;;;5119533;28;20527;-70
2022/08/09 04:02:17;;;;;;;10.90;4.55;;;18.40;82.80;;;;;;5118012;28;20028;-69
2022/08/09 04:04:43;;;;;;;10.30;4.22;;;18.30;82.40;;;;;;5116450;28;20395;-69
2022/08/09 04:07:09;;;;;;;13.93;4.38;;;18.30;82.40;;;;;;5116560;28;20023;-70
2022/08/09 04:09:34;;;;;;;9.75;4.60;;;18.40;82.50;;;;;;5118083;28;20193;-69
2022/08/09 04:12:09;;;;;;;5.03;2.97;;;18.30;82.60;;;;;;5116740;28;20035;-69
2022/08/09 04:14:37;;;;;;;7.53;2.88;;;18.20;82.80;;;;;;5117568;28;20789;-69
2022/08/09 04:17:02;;;;;;;9.57;3.00;;;18.30;82.40;;;;;;5115356;28;20027;-69
2022/08/09 04:19:28;;;;;;;8.30;2.50;;;18.20;83.00;;;;;;5116012;28;20049;-70
2022/08/09 04:21:54;;;;;;;5.88;2.70;;;18.00;83.40;;;;;;5117335;28;20023;-69
2022/08/09 04:24:19;;;;;;;5.93;2.10;;;18.00;83.80;;;;;;5118036;28;20020;-69
2022/08/09 04:26:45;;;;;;;4.75;2.28;;;17.90;84.20;;;;;;5117027;28;20258;-69
2022/08/09 04:29:11;;;;;;;5.57;2.10;;;18.00;84.60;;;;;;5114727;28;20418;-69
2022/08/09 04:31:37;;;;;;;4.45;1.80;;;18.10;84.50;;;;;;5115771;28;20031;-69
2022/08/09 04:34:02;;;;;;;4.28;2.08;;;18.10;84.20;;;;;;5115648;28;20475;-69
2022/08/09 04:36:30;;;;;;;4.50;1.77;;;18.20;84.20;;;;;;5115850;28;20524;-69
2022/08/09 04:38:58;;;;;;;5.35;2.05;;;18.20;83.70;;;;;;5114187;28;20031;-69
2022/08/09 04:41:24;;;;;;;4.75;2.00;;;18.20;84.10;;;;;;5115639;28;20056;-69
2022/08/09 04:43:50;;;;;;;6.10;1.77;;;18.30;84.00;;;;;;5115481;28;20019;-70
2022/08/09 04:46:16;;;;;;;2.65;1.70;;;18.20;84.20;;;;;;5115492;28;20035;-69
2022/08/09 04:48:42;;;;;;;4.73;1.80;;;18.30;84.20;;;;;;5114235;28;20391;-69
2022/08/09 04:51:07;;;;;;;6.83;2.00;;;18.30;84.70;;;;;;5114051;28;20772;-69
2022/08/09 04:53:33;;;;;;;4.28;1.63;;;18.20;84.10;;;;;;5115336;28;20633;-69
2022/08/09 04:55:59;;;;;;;2.67;1.33;;;18.20;84.70;;;;;;5113846;28;20038;-70
2022/08/09 04:58:26;;;;;;;8.85;2.80;;;18.20;85.00;;;;;;5113883;28;20023;-70
2022/08/09 05:00:52;;;;;;;5.05;1.50;;;18.10;85.20;;;;;;5114013;28;20050;-69
2022/08/09 05:03:17;;;;;;;3.30;1.67;;;18.10;86.10;;;;;;5113680;28;20535;-69
2022/08/09 05:05:43;;;;;;;4.90;1.80;;;18.20;86.00;;;;;;5115591;28;20411;-69
2022/08/09 05:08:08;;;;;;;4.07;1.63;;;18.20;86.10;;;;;;5113881;28;20028;-69
2022/08/09 05:10:34;;;;;;;5.70;1.60;;;18.20;86.70;;;;;;5115133;28;20810;-69
2022/08/09 05:12:59;;;;;;;4.25;1.80;;;18.30;86.30;;;;;;5114343;28;20633;-69
2022/08/09 05:15:27;;;;;;;4.32;1.75;;;18.30;86.70;;;;;;5114433;28;20035;-70
2022/08/09 05:17:52;;;;;;;4.83;2.60;;;18.20;87.10;;;;;;5077378;28;1070437;-64
2022/08/09 05:20:18;;;;;;;5.88;2.13;;;18.30;87.60;;;;;;5115262;28;20437;-65
2022/08/09 05:22:44;;;;;;;5.13;2.28;;;18.30;88.00;;;;;;5116820;28;20426;-65
2022/08/09 05:25:11;;;;;;;4.03;2.17;;;18.30;88.30;;;;;;5116734;28;20054;-65
2022/08/09 05:27:36;;;;;;;4.55;2.30;;;18.30;88.80;;;;;;5116665;28;20027;-65
2022/08/09 05:30:03;;;;;;;5.88;2.78;;;18.20;89.10;;;;;;5117482;28;20478;-64
2022/08/09 05:32:28;;;;;;;6.45;2.85;;;18.30;89.40;;;;;;5115763;28;20036;-65
2022/08/09 05:34:54;;;;;;;9.43;2.67;;;18.30;89.60;;;;;;5116653;28;20152;-62
2022/08/09 05:37:19;;;;;;;5.95;3.13;;;18.30;89.80;;;;;;5114423;28;20395;-64
2022/08/09 05:39:45;;;;;;;6.10;3.38;;;18.40;89.50;;;;;;5116142;28;20065;-64
2022/08/09 05:42:12;;;;;;;6.30;2.50;;;18.40;89.20;;;;;;5116770;28;20092;-64
2022/08/09 05:44:38;;;;;;;7.30;3.00;;;18.70;88.60;;;;;;5116238;28;20050;-63
2022/08/09 05:47:03;;;;;;;8.90;3.20;;;18.80;87.20;;;;;;5115351;28;20484;-63
2022/08/09 05:49:29;;;;;;;8.35;3.38;;;18.90;86.30;;;;;;5117422;28;20036;-63
2022/08/09 05:51:54;;;;;;;10.18;3.67;;;19.10;86.10;;;;;;5116102;28;20084;-64
2022/08/09 05:54:20;;;;;;;10.80;3.08;;;19.20;85.40;;;;;;5114555;28;20056;-63
2022/08/09 05:56:45;;;;;;;4.93;2.78;;;19.30;84.70;;;;;;5115682;28;20059;-61
2022/08/09 05:59:11;;;;;;;8.40;2.67;;;19.40;84.40;;;;;;5113794;28;20055;-64
2022/08/09 06:01:36;;;;;;;5.32;2.28;;;19.50;84.20;;;;;;5115220;28;20020;-65
2022/08/09 06:04:02;;;;;;;5.75;2.15;;;19.70;83.40;;;;;;5115509;28;20136;-62
2022/08/09 06:06:28;;;;;;;4.22;2.10;;;19.70;83.00;;;;;;5116039;28;20035;-64
2022/08/09 06:08:54;;;;;;;6.00;2.50;;;19.90;82.50;;;;;;5117735;28;20077;-64
2022/08/09 06:11:19;;;;;;;4.20;1.80;;;20.00;81.80;;;;;;5118260;28;20076;-64
2022/08/09 06:13:45;;;;;;;6.63;2.33;;;20.10;81.20;;;;;;5118322;28;20128;-63
2022/08/09 06:16:11;;;;;;;4.97;2.58;;;20.20;80.40;;;;;;5117519;28;20047;-64
2022/08/09 06:18:37;;;;;;;4.88;2.60;;;20.20;79.80;;;;;;5116910;28;20030;-64
2022/08/09 06:21:03;;;;;;;7.22;2.60;;;20.10;79.70;;;;;;5115808;28;20016;-64
2022/08/09 06:23:31;;;;;;;10.32;3.30;;;20.10;79.80;;;;;;5117208;28;20032;-64
2022/08/09 06:25:57;;;;;;;10.30;2.70;;;20.20;79.70;;;;;;5114981;28;20488;-64
2022/08/09 06:28:22;;;;;;;21.52;3.88;;;20.20;78.50;;;;;;5115573;28;20412;-64
2022/08/09 06:30:48;;;;;;;9.00;2.80;;;20.20;78.60;;;;;;5117307;28;20036;-65
2022/08/09 06:33:14;;;;;;;7.80;2.85;;;20.30;78.30;;;;;;5116474;28;20031;-64
2022/08/09 06:35:39;;;;;;;8.68;2.47;;;20.30;77.40;;;;;;5118649;28;20024;-64
2022/08/09 06:38:06;;;;;;;7.43;3.03;;;20.50;77.00;;;;;;5118843;28;20024;-65
2022/08/09 06:40:31;;;;;;;7.57;2.58;;;20.60;76.30;;;;;;5115383;28;20020;-65
2022/08/09 06:42:57;;;;;;;3.90;2.00;;;20.70;75.50;;;;;;5114263;28;20069;-66
2022/08/09 06:45:23;;;;;;;9.13;2.80;;;20.90;74.90;;;;;;5113239;28;20472;-63
2022/08/09 06:47:49;;;;;;;3.83;2.22;;;21.10;74.30;;;;;;5112821;28;20490;-64
2022/08/09 06:50:15;;;;;;;3.70;2.65;;;21.00;73.50;;;;;;5114044;28;20028;-64
2022/08/09 06:52:47;;;;;;;;;;;21.00;73.20;;;;;;5114556;28;20072;-63
2022/08/09 06:55:18;;;;;;;3.67;1.98;;;21.10;73.20;;;;;;5116840;28;20384;-64
2022/08/09 06:57:43;;;;;;;4.82;1.83;;;21.20;72.60;;;;;;5112956;28;20027;-64
2022/08/09 07:00:10;;;;;;;5.63;2.30;;;21.40;72.00;;;;;;5114670;28;20056;-66
2022/08/09 07:02:36;;;;;;;2.83;1.95;;;21.50;72.00;;;;;;5113726;28;20480;-65
2022/08/09 07:05:02;;;;;;;3.17;1.67;;;21.60;71.60;;;;;;5113838;28;20042;-65
2022/08/09 07:07:28;;;;;;;5.40;1.80;;;21.60;71.20;;;;;;5112385;28;20023;-65
2022/08/09 07:09:54;;;;;;;4.28;1.95;;;21.70;71.00;;;;;;5113974;28;20084;-65
2022/08/09 07:12:20;;;;;;;4.68;1.58;;;21.80;70.50;;;;;;5114203;28;20024;-65
2022/08/09 07:14:47;;;;;;;10.43;2.13;;;22.00;70.40;;;;;;5115387;28;20425;-64
2022/08/09 07:17:13;;;;;;;;;;;22.00;70.00;;;;;;5135663;22;20145;-68
2022/08/09 07:19:38;;;;;;;3.33;1.60;;;22.20;69.60;;;;;;5105698;28;19939;-68
2022/08/09 07:22:04;;;;;;;3.78;1.40;;;22.30;69.70;;;;;;5105599;28;20024;-68
2022/08/09 07:24:30;;;;;;;4.95;1.77;;;22.40;69.40;;;;;;5105727;28;20028;-69
2022/08/09 07:26:56;;;;;;;2.42;1.70;;;22.50;69.20;;;;;;5105090;28;20028;-69
2022/08/09 07:29:21;;;;;;;;;;;22.70;68.80;;;;;;5103748;28;20031;-69
2022/08/09 07:31:47;;;;;;;3.13;1.60;;;22.80;68.80;;;;;;5103350;28;19903;-69
2022/08/09 07:34:12;;;;;;;3.05;1.25;;;22.80;68.00;;;;;;5102246;28;20337;-69
2022/08/09 07:36:39;;;;;;;5.07;1.20;;;22.80;67.50;;;;;;5100258;28;20079;-69
2022/08/09 07:39:05;;;;;;;2.35;1.15;;;22.90;68.20;;;;;;5098738;28;20388;-69
2022/08/09 07:41:31;;;;;;;3.38;1.52;;;23.00;67.20;;;;;;5101136;28;20088;-68
2022/08/09 07:43:57;;;;;;;;;;;23.10;67.00;;;;;;5101501;28;20081;-69
2022/08/09 07:46:23;;;;;;;4.30;1.55;;;23.20;66.40;;;;;;5104344;28;19972;-69
2022/08/09 07:48:49;;;;;;;3.78;1.50;;;23.30;66.10;;;;;;5106321;28;20480;-69
2022/08/09 07:51:14;;;;;;;3.92;1.63;;;23.40;65.80;;;;;;5100789;28;20115;-69
2022/08/09 07:53:40;;;;;;;2.25;1.10;;;23.50;65.70;;;;;;5100300;28;20032;-69
2022/08/09 07:56:06;;;;;;;3.70;1.10;;;23.60;65.40;;;;;;5102547;28;20028;-69
2022/08/09 07:58:32;;;;;;;3.67;1.20;;;23.70;65.20;;;;;;5105459;28;20446;-69
2022/08/09 08:00:57;;;;;;;3.40;1.17;;;23.90;65.00;;;;;;5106720;28;20056;-71
2022/08/09 08:03:23;;;;;;;3.28;1.20;;;24.00;64.50;;;;;;5110296;28;20028;-71
2022/08/09 08:05:49;;;;;;;3.40;2.08;;;24.10;63.90;;;;;;5110850;28;20028;-71
2022/08/09 08:08:15;;;;;;;6.22;1.50;;;24.20;64.40;;;;;;5108976;28;20028;-70
2022/08/09 08:10:40;;;;;;;1.88;1.30;;;24.20;64.30;;;;;;5097482;28;20063;-71
2022/08/09 08:13:06;;;;;;;2.72;1.33;;;24.30;64.10;;;;;;5095156;28;20452;-70
2022/08/09 08:15:32;;;;;;;;;;;24.50;63.90;;;;;;5096662;28;20029;-72
2022/08/09 08:17:57;;;;;;;2.10;1.13;;;24.60;63.60;;;;;;5095535;28;20352;-71
2022/08/09 08:20:24;;;;;;;;;;;24.70;63.70;;;;;;5095027;28;20050;-72
2022/08/09 08:22:49;;;;;;;2.97;1.53;;;24.80;63.30;;;;;;5096221;28;19904;-71
2022/08/09 08:25:15;;;;;;;;;;;25.00;63.50;;;;;;5095063;28;20031;-71
2022/08/09 08:27:41;;;;;;;2.80;1.50;;;25.20;63.00;;;;;;5095829;28;19908;-71
2022/08/09 08:30:07;;;;;;;;;;;25.70;62.20;;;;;;5094485;28;20039;-71
2022/08/09 08:32:32;;;;;;;3.67;1.40;;;28.00;59.90;;;;;;5095537;28;19955;-71
2022/08/09 08:34:59;;;;;;;1.80;1.33;;;31.40;56.10;;;;;;5094333;28;20028;-71
2022/08/09 08:37:25;;;;;;;2.47;1.40;;;33.90;52.90;;;;;;5094123;28;20028;-69
2022/08/09 08:39:53;;;;;;;3.63;1.27;;;35.70;50.00;;;;;;5095392;28;20020;-70
2022/08/09 08:42:19;;;;;;;4.68;1.50;;;37.10;48.70;;;;;;5095396;28;20044;-69
2022/08/09 08:44:47;;;;;;;4.25;1.60;;;38.80;47.40;;;;;;5095355;28;20118;-69
2022/08/09 08:47:14;;;;;;;3.17;1.60;;;39.90;46.00;;;;;;5095331;28;20464;-70
2022/08/09 08:49:40;;;;;;;4.65;1.25;;;40.60;45.20;;;;;;5093789;28;20491;-69
2022/08/09 08:52:07;;;;;;;2.63;1.42;;;40.50;44.60;;;;;;5093726;28;20052;-70
2022/08/09 08:54:34;;;;;;;2.55;1.63;;;40.40;44.10;;;;;;5093759;28;20028;-69
2022/08/09 08:57:00;;;;;;;3.33;1.30;;;40.40;44.40;;;;;;5094956;28;20111;-70
2022/08/09 08:59:25;;;;;;;4.70;1.40;;;41.00;44.20;;;;;;5095205;28;20039;-70
2022/08/09 09:01:51;;;;;;;2.55;1.30;;;41.50;43.90;;;;;;5093672;28;20020;-70
2022/08/09 09:04:19;;;;;;;8.88;2.13;;;41.50;43.40;;;;;;5093812;28;20134;-71
2022/08/09 09:06:47;;;;;;;2.65;1.27;;;42.50;43.30;;;;;;5095008;28;20048;-70
2022/08/09 09:09:15;;;;;;;2.33;1.30;;;42.70;42.80;;;;;;5093927;28;20034;-70
2022/08/09 09:11:41;;;;;;;4.75;1.30;;;42.60;42.80;;;;;;5093775;28;20092;-69
2022/08/09 09:14:21;;;;;;;1.75;1.27;;;43.20;42.40;;;;;;5093258;28;20388;-69
2022/08/09 09:16:46;;;;;;;1.92;1.17;;;42.90;42.00;;;;;;5093413;28;20030;-70
2022/08/09 09:19:12;;;;;;;3.42;1.20;;;41.80;42.80;;;;;;5095293;28;20129;-70
2022/08/09 09:21:57;;;;;;;6.30;1.60;;;42.70;42.40;;;;;;5094703;28;20081;-70
2022/08/09 09:24:27;;;;;;;3.73;1.40;;;43.20;42.10;;;;;;5094650;28;20031;-70
2022/08/09 09:26:55;;;;;;;2.33;1.67;;;43.60;42.00;;;;;;5094927;28;20020;-69
2022/08/09 09:29:28;;;;;;;2.72;1.40;;;44.10;42.40;;;;;;5101100;28;20054;-70
2022/08/09 09:31:54;;;;;;;3.88;1.50;;;43.30;41.40;;;;;;5101892;28;20053;-70
2022/08/09 09:34:19;;;;;;;4.63;1.20;;;42.10;42.00;;;;;;5098803;28;20110;-70
2022/08/09 09:36:45;;;;;;;4.97;1.75;;;41.80;42.50;;;;;;5097115;28;20077;-70
2022/08/09 09:39:11;;;;;;;3.60;1.30;;;42.20;42.40;;;;;;5094286;28;20024;-70
2022/08/09 09:41:36;;;;;;;8.18;1.40;;;42.30;42.40;;;;;;5094282;28;20020;-70
2022/08/09 09:44:04;;;;;;;3.65;1.40;;;41.90;42.10;;;;;;5094202;28;20099;-70
2022/08/09 09:46:35;;;;;;;3.70;1.40;;;42.10;42.50;;;;;;5094009;28;20031;-70
2022/08/09 09:49:09;;;;;;;5.07;1.60;;;43.10;42.20;;;;;;5092649;28;20421;-72
2022/08/09 09:51:36;;;;;;;2.92;1.30;;;43.20;41.80;;;;;;5092658;28;20038;-71
2022/08/09 09:54:13;;;;;;;4.13;1.20;;;42.30;41.70;;;;;;5093864;28;20039;-70
2022/08/09 09:56:46;;;;;;;1.83;1.13;;;41.60;42.40;;;;;;5094031;28;20040;-70
2022/08/09 09:59:19;;;;;;;4.57;1.63;;;42.20;41.80;;;;;;5094329;28;20095;-71
2022/08/09 10:01:45;;;;;;;2.47;1.35;;;41.90;41.90;;;;;;5093778;28;20074;-71
2022/08/09 10:04:19;;;;;;;1.85;1.30;;;42.10;42.10;;;;;;5093662;28;20020;-71
2022/08/09 10:06:46;;;;;;;2.90;1.33;;;42.60;41.60;;;;;;5093427;28;20528;-71
2022/08/09 10:09:13;;;;;;;2.95;1.50;;;43.10;41.20;;;;;;5093626;28;20028;-71
2022/08/09 10:11:39;;;;;;;3.22;1.65;;;43.70;40.20;;;;;;5092301;28;20559;-71
2022/08/09 10:14:05;;;;;;;4.30;1.48;;;42.80;40.20;;;;;;5094034;28;20097;-71
2022/08/09 10:16:33;;;;;;;2.28;1.48;;;42.90;41.00;;;;;;5092161;28;20036;-71
2022/08/09 10:19:05;;;;;;;3.95;1.48;;;42.30;41.00;;;;;;5091807;28;20123;-71
2022/08/09 10:21:32;;;;;;;4.55;1.58;;;42.00;41.20;;;;;;5092179;28;20084;-71
2022/08/09 10:24:03;;;;;;;2.35;1.38;;;41.90;41.30;;;;;;5093298;28;20107;-70
2022/08/09 10:26:29;;;;;;;2.42;1.42;;;43.00;40.90;;;;;;5092128;28;20032;-70
2022/08/09 10:28:56;;;;;;;3.33;1.33;;;41.60;40.90;;;;;;5093415;28;20491;-70
2022/08/09 10:31:22;;;;;;;4.05;1.40;;;41.50;41.50;;;;;;5091976;28;20047;-70
2022/08/09 10:33:48;;;;;;;3.08;1.30;;;42.60;41.50;;;;;;5091825;28;20047;-70
2022/08/09 10:36:15;;;;;;;3.30;1.30;;;42.60;40.80;;;;;;5091649;28;20019;-70
2022/08/09 10:38:44;;;;;;;3.17;1.45;;;42.20;40.70;;;;;;5093486;28;20349;-70
2022/08/09 10:41:10;;;;;;;3.50;1.42;;;41.20;41.10;;;;;;5091779;28;20027;-70
2022/08/09 10:43:41;;;;;;;3.85;3.15;;;40.70;41.40;;;;;;5093226;28;20074;-70
2022/08/09 10:46:36;;;;;;;3.10;1.60;;;40.80;41.70;;;;;;5093561;28;20068;-70
2022/08/09 10:49:14;;;;;;;3.72;1.55;;;42.00;41.40;;;;;;5093540;28;20026;-71
2022/08/09 10:51:57;;;;;;;2.95;1.60;;;42.70;40.70;;;;;;5093169;28;20028;-70
2022/08/09 10:54:24;;;;;;;3.97;1.30;;;41.90;41.00;;;;;;5091680;28;20114;-70
2022/08/09 10:57:07;;;;;;;4.30;1.25;;;41.10;40.20;;;;;;5092865;28;20099;-71
2022/08/09 10:59:34;;;;;;;3.58;1.40;;;40.50;40.50;;;;;;5091804;28;20345;-70
2022/08/09 11:02:00;;;;;;;2.53;1.35;;;39.30;41.10;;;;;;5093107;28;20024;-70
2022/08/09 11:04:30;;;;;;;3.22;1.48;;;38.50;41.50;;;;;;5091774;28;20032;-71
2022/08/09 11:06:59;;;;;;;3.83;1.35;;;38.20;41.90;;;;;;5092029;28;20081;-71
2022/08/09 11:09:37;;;;;;;2.50;1.13;;;38.90;41.90;;;;;;5093156;28;20016;-70
2022/08/09 11:12:09;;;;;;;4.85;1.30;;;39.70;41.50;;;;;;5091565;28;20028;-70
2022/08/09 11:14:37;;;;;;;5.05;1.20;;;39.90;41.10;;;;;;5092856;28;20020;-70
2022/08/09 11:17:23;;;;;;;4.93;1.48;;;38.10;41.90;;;;;;5092755;28;20074;-70
2022/08/09 11:20:00;;;;;;;4.57;1.60;;;36.40;43.50;;;;;;5082050;28;20060;-70
2022/08/09 11:22:44;;;;;;;5.32;1.60;;;35.20;44.60;;;;;;5091830;28;20556;-70
2022/08/09 11:25:11;;;;;;;1.55;1.20;;;34.30;45.20;;;;;;5091573;28;20059;-71
2022/08/09 11:27:41;;;;;;;2.88;1.48;;;33.30;45.40;;;;;;5092787;28;20016;-71
2022/08/09 11:30:09;;;;;;;2.17;1.30;;;32.40;46.40;;;;;;5092576;28;20054;-71
2022/08/09 11:32:46;;;;;;;2.47;1.35;;;32.20;46.90;;;;;;5091670;28;20472;-70
2022/08/09 11:35:27;;;;;;;3.03;1.27;;;31.80;47.20;;;;;;5092699;28;20097;-71
2022/08/09 11:38:20;;;;;;;5.57;1.40;;;31.70;47.40;;;;;;5092676;28;20025;-71
2022/08/09 11:40:45;;;;;;;3.20;1.27;;;31.30;47.60;;;;;;5093122;28;20023;-70
2022/08/09 11:43:35;;;;;;;3.50;1.33;;;31.40;47.60;;;;;;5092576;28;20107;-70
2022/08/09 11:46:02;;;;;;;4.55;1.45;;;31.30;47.70;;;;;;5081950;28;20119;-70
2022/08/09 11:48:31;;;;;;;2.45;1.30;;;31.40;47.80;;;;;;5092302;28;20024;-71
2022/08/09 11:50:56;;;;;;;2.17;1.30;;;31.50;48.10;;;;;;5092356;28;20032;-70
2022/08/09 11:53:29;;;;;;;2.00;1.38;;;31.60;48.10;;;;;;5092420;28;20073;-71
2022/08/09 11:55:59;;;;;;;3.47;1.40;;;31.40;48.40;;;;;;5092296;28;20055;-70
2022/08/09 11:58:27;;;;;;;4.57;1.30;;;31.10;48.60;;;;;;5092645;28;20012;-71
2022/08/09 12:00:54;;;;;;;3.47;1.42;;;31.00;49.10;;;;;;5092708;28;20438;-71
2022/08/09 12:03:24;;;;;;;3.42;1.38;;;30.90;49.00;;;;;;5095893;28;20035;-70
2022/08/09 12:05:51;;;;;;;4.35;1.27;;;31.10;49.10;;;;;;5096094;28;20032;-70
2022/08/09 12:08:19;;;;;;;2.33;1.35;;;30.90;48.90;;;;;;5096118;28;20028;-70
2022/08/09 12:10:51;;;;;;;1.95;1.20;;;31.00;48.70;;;;;;5096122;28;20492;-70
2022/08/09 12:13:36;;;;;;;5.72;1.63;;;31.00;48.80;;;;;;5103411;28;20065;-70
2022/08/09 12:16:08;;;;;;;3.80;1.58;;;31.00;48.60;;;;;;5104268;28;20486;-71
2022/08/09 12:18:35;;;;;;;2.47;1.10;;;31.00;48.40;;;;;;5103094;28;20031;-70
2022/08/09 12:21:04;;;;;;;1.83;1.20;;;31.00;48.40;;;;;;5098513;28;20099;-70
2022/08/09 12:23:31;;;;;;;2.47;1.40;;;31.00;48.20;;;;;;5097112;28;20404;-70
2022/08/09 12:25:57;;;;;;;1.88;1.13;;;31.10;48.40;;;;;;5096805;28;20028;-70
2022/08/09 12:28:23;;;;;;;1.67;1.10;;;31.10;48.20;;;;;;5096792;28;20074;-69
2022/08/09 12:30:49;;;;;;;2.47;1.73;;;31.10;48.30;;;;;;5096561;28;20056;-69
2022/08/09 12:33:16;;;;;;;3.72;1.55;;;31.10;48.10;;;;;;5096464;28;20103;-69
2022/08/09 12:35:43;;;;;;;2.08;1.40;;;30.90;48.70;;;;;;5095767;28;20039;-70
2022/08/09 12:38:20;;;;;;;3.53;1.50;;;31.00;48.70;;;;;;5096045;28;20353;-70
2022/08/09 12:40:47;;;;;;;3.92;1.38;;;31.10;48.40;;;;;;5095663;28;20044;-71
2022/08/09 12:43:14;;;;;;;2.97;1.33;;;31.10;48.00;;;;;;5094026;28;20077;-70
2022/08/09 12:45:43;;;;;;;4.75;1.50;;;31.00;48.30;;;;;;5095178;28;20107;-70
2022/08/09 12:48:10;;;;;;;6.20;1.67;;;30.90;48.40;;;;;;5093702;28;20033;-70
2022/08/09 12:50:36;;;;;;;3.47;1.10;;;31.00;48.20;;;;;;5095710;28;20468;-70
2022/08/09 12:53:02;;;;;;;2.45;1.27;;;31.10;48.40;;;;;;5095140;28;20329;-70
2022/08/09 12:55:33;;;;;;;3.83;1.60;;;31.00;48.30;;;;;;5095204;28;20031;-70